Time;durP1;ratioP1;P1;durP2;ratioP2;P2;SDS_P1;SDS_P2;PMS_P1;PMS_P2;Temp;Humidity;BMP_temperature;BMP_pressure;BME280_temperature;BME280_humidity;BME280_pressure;Samples;Min_cycle;Max_cycle;Signal;HPM_P1;HPM_P2
2019/12/14 00:02:35;;;;;;;8.1;2.3;;;;;;;;;;;;;
2019/12/14 00:04:49;;;;;;;8.2;2.5;;;;;;;;;;;;;
2019/12/14 00:07:13;;;;;;;8.1;2.6;;;;;;;;;;;;;
2019/12/14 00:09:39;;;;;;;6.8;2.4;;;;;;;;;;;;;
2019/12/14 00:12:04;;;;;;;8.2;2.2;;;;;;;;;;;;;
2019/12/14 00:14:29;;;;;;;8.2;2.4;;;;;;;;;;;;;
2019/12/14 00:16:54;;;;;;;9.7;2.7;;;;;;;;;;;;;
2019/12/14 00:19:19;;;;;;;8.9;2.5;;;;;;;;;;;;;
2019/12/14 00:21:44;;;;;;;8.9;2.2;;;;;;;;;;;;;
2019/12/14 00:24:09;;;;;;;7.9;2.3;;;;;;;;;;;;;
2019/12/14 00:26:34;;;;;;;8;2.2;;;;;;;;;;;;;
2019/12/14 00:29:00;;;;;;;10.4;2.6;;;;;;;;;;;;;
2019/12/14 00:31:25;;;;;;;10.1;2.9;;;;;;;;;;;;;
2019/12/14 00:33:50;;;;;;;5.8;2;;;;;;;;;;;;;
2019/12/14 00:36:15;;;;;;;10;2.5;;;;;;;;;;;;;
2019/12/14 00:38:40;;;;;;;7.5;2.4;;;;;;;;;;;;;
2019/12/14 00:41:05;;;;;;;9.3;2.4;;;;;;;;;;;;;
2019/12/14 00:43:30;;;;;;;7.2;2.3;;;;;;;;;;;;;
2019/12/14 00:45:55;;;;;;;8.1;2.3;;;;;;;;;;;;;
2019/12/14 00:48:20;;;;;;;8.1;2.2;;;;;;;;;;;;;
2019/12/14 00:50:45;;;;;;;8.3;2.5;;;;;;;;;;;;;
2019/12/14 00:53:10;;;;;;;9.5;2.4;;;;;;;;;;;;;
2019/12/14 00:55:36;;;;;;;7.6;2.5;;;;;;;;;;;;;
2019/12/14 00:58:01;;;;;;;8.4;2.4;;;;;;;;;;;;;
2019/12/14 01:00:26;;;;;;;8.9;2.4;;;;;;;;;;;;;
2019/12/14 01:02:52;;;;;;;7;2.1;;;;;;;;;;;;;
2019/12/14 01:05:17;;;;;;;7.2;2.2;;;;;;;;;;;;;
2019/12/14 01:07:54;;;;;;;9.3;2.4;;;;;;;;;;;;;
2019/12/14 01:10:16;;;;;;;6.7;2;;;;;;;;;;;;;
2019/12/14 01:12:31;;;;;;;6.6;2;;;;;;;;;;;;;
2019/12/14 01:14:56;;;;;;;5.5;1.9;;;;;;;;;;;;;
2019/12/14 01:17:23;;;;;;;8.6;2.2;;;;;;;;;;;;;
2019/12/14 01:19:46;;;;;;;6.1;2;;;;;;;;;;;;;
2019/12/14 01:22:12;;;;;;;7.1;1.9;;;;;;;;;;;;;
2019/12/14 01:24:36;;;;;;;8.1;2.2;;;;;;;;;;;;;
2019/12/14 01:27:02;;;;;;;7.7;2.2;;;;;;;;;;;;;
2019/12/14 01:29:27;;;;;;;8.3;2.4;;;;;;;;;;;;;
2019/12/14 01:31:53;;;;;;;7;2.1;;;;;;;;;;;;;
2019/12/14 01:34:17;;;;;;;6.8;2;;;;;;;;;;;;;
2019/12/14 01:36:42;;;;;;;7.5;2.2;;;;;;;;;;;;;
2019/12/14 01:39:07;;;;;;;8.9;2.3;;;;;;;;;;;;;
2019/12/14 01:41:32;;;;;;;7.8;2;;;;;;;;;;;;;
2019/12/14 01:43:57;;;;;;;6;2;;;;;;;;;;;;;
2019/12/14 01:46:23;;;;;;;7.1;2.2;;;;;;;;;;;;;
2019/12/14 01:48:48;;;;;;;7;2;;;;;;;;;;;;;
2019/12/14 01:51:13;;;;;;;7.5;2.2;;;;;;;;;;;;;
2019/12/14 01:53:38;;;;;;;7.9;2;;;;;;;;;;;;;
2019/12/14 01:56:03;;;;;;;7.4;2.1;;;;;;;;;;;;;
2019/12/14 01:58:28;;;;;;;7;2.3;;;;;;;;;;;;;
2019/12/14 02:00:53;;;;;;;6.9;2.1;;;;;;;;;;;;;
2019/12/14 02:03:30;;;;;;;7.1;2;;;;;;;;;;;;;
2019/12/14 02:06:02;;;;;;;7.6;2.3;;;;;;;;;;;;;
2019/12/14 02:08:09;;;;;;;6.5;1.9;;;;;;;;;;;;;
2019/12/14 02:10:34;;;;;;;6.9;2;;;;;;;;;;;;;
2019/12/14 02:12:59;;;;;;;7.2;2.1;;;;;;;;;;;;;
2019/12/14 02:15:24;;;;;;;6.9;2;;;;;;;;;;;;;
2019/12/14 02:17:49;;;;;;;7.3;1.8;;;;;;;;;;;;;
2019/12/14 02:20:14;;;;;;;8.1;2.3;;;;;;;;;;;;;
2019/12/14 02:22:39;;;;;;;7.9;2;;;;;;;;;;;;;
2019/12/14 02:25:04;;;;;;;9.4;2.2;;;;;;;;;;;;;
2019/12/14 02:27:29;;;;;;;6.4;2;;;;;;;;;;;;;
2019/12/14 02:29:54;;;;;;;7.5;2;;;;;;;;;;;;;
2019/12/14 02:32:19;;;;;;;7.7;2.3;;;;;;;;;;;;;
2019/12/14 02:34:44;;;;;;;7.3;2.1;;;;;;;;;;;;;
2019/12/14 02:37:10;;;;;;;6.7;2.1;;;;;;;;;;;;;
2019/12/14 02:39:35;;;;;;;8.7;2.3;;;;;;;;;;;;;
2019/12/14 02:42:00;;;;;;;8.1;2.4;;;;;;;;;;;;;
2019/12/14 02:44:25;;;;;;;8.2;2.3;;;;;;;;;;;;;
2019/12/14 02:46:50;;;;;;;5.9;2.1;;;;;;;;;;;;;
2019/12/14 02:49:15;;;;;;;6.4;2.4;;;;;;;;;;;;;
2019/12/14 02:51:40;;;;;;;6.1;1.9;;;;;;;;;;;;;
2019/12/14 02:54:05;;;;;;;7;2.2;;;;;;;;;;;;;
2019/12/14 02:56:30;;;;;;;5.2;1.8;;;;;;;;;;;;;
2019/12/14 02:58:55;;;;;;;6.4;1.7;;;;;;;;;;;;;
2019/12/14 03:01:20;;;;;;;6.9;1.7;;;;;;;;;;;;;
2019/12/14 03:03:45;;;;;;;5.6;1.8;;;;;;;;;;;;;
2019/12/14 03:06:11;;;;;;;6.1;1.9;;;;;;;;;;;;;
2019/12/14 03:08:36;;;;;;;4.8;1.4;;;;;;;;;;;;;
2019/12/14 03:11:02;;;;;;;5;1.7;;;;;;;;;;;;;
2019/12/14 03:13:26;;;;;;;5.8;1.5;;;;;;;;;;;;;
2019/12/14 03:15:52;;;;;;;6.8;1.9;;;;;;;;;;;;;
2019/12/14 03:18:16;;;;;;;7.1;1.9;;;;;;;;;;;;;
2019/12/14 03:20:41;;;;;;;7;1.9;;;;;;;;;;;;;
2019/12/14 03:23:06;;;;;;;6.2;2.2;;;;;;;;;;;;;
2019/12/14 03:25:31;;;;;;;7.8;1.8;;;;;;;;;;;;;
2019/12/14 03:28:12;;;;;;;5.2;1.7;;;;;;;;;;;;;
2019/12/14 03:30:21;;;;;;;5.8;1.7;;;;;;;;;;;;;
2019/12/14 03:32:46;;;;;;;4.3;1.7;;;;;;;;;;;;;
2019/12/14 03:35:11;;;;;;;6;1.6;;;;;;;;;;;;;
2019/12/14 03:37:37;;;;;;;5.6;1.7;;;;;;;;;;;;;
2019/12/14 03:40:02;;;;;;;5.7;1.6;;;;;;;;;;;;;
2019/12/14 03:42:27;;;;;;;4.6;1.5;;;;;;;;;;;;;
2019/12/14 03:44:52;;;;;;;6.1;1.8;;;;;;;;;;;;;
2019/12/14 03:47:17;;;;;;;4.5;1.8;;;;;;;;;;;;;
2019/12/14 03:49:42;;;;;;;6;1.8;;;;;;;;;;;;;
2019/12/14 03:52:07;;;;;;;4.1;1.5;;;;;;;;;;;;;
2019/12/14 03:54:33;;;;;;;4.7;1.6;;;;;;;;;;;;;
2019/12/14 03:56:58;;;;;;;5.3;1.5;;;;;;;;;;;;;
2019/12/14 03:59:23;;;;;;;4.9;1.6;;;;;;;;;;;;;
2019/12/14 04:02:28;;;;;;;3.9;1.5;;;;;;;3.63;69.75781;936.6241;;;;
2019/12/14 04:04:53;;;;;;;5.5;1.7;;;;;;;3.73;70.65918;936.6505;;;;
2019/12/14 04:07:18;;;;;;;4.7;1.5;;;;;;;3.85;71.09766;936.6545;;;;
2019/12/14 04:09:57;;;;;;;5.5;1.6;;;;;;;3.92;71.12109;936.6721;;;;
2019/12/14 04:12:09;;;;;;;4.1;1.3;;;;;;;3.99;72.16406;936.6226;;;;
2019/12/14 04:14:34;;;;;;;5;1.6;;;;;;;4.03;73.14355;936.6364;;;;
2019/12/14 04:16:59;;;;;;;3.3;1.4;;;;;;;4.02;74.28809;936.7073;;;;
2019/12/14 04:19:24;;;;;;;3.5;1.4;;;;;;;3.91;76.28711;936.6936;;;;
2019/12/14 04:21:49;;;;;;;5.2;1.4;;;;;;;3.85;79.33496;936.8003;;;;
2019/12/14 04:24:14;;;;;;;4;1.2;;;;;;;3.31;83.96484;936.6077;;;;
2019/12/14 04:26:39;;;;;;;4.2;1.4;;;;;;;3.1;88.96875;936.4835;;;;
2019/12/14 04:29:11;;;;;;;4.7;1.2;;;;;;;3.05;89.94336;936.4164;;;;
2019/12/14 04:33:55;;;;;;;7.1;1.6;;;;;;;2.92;90.64746;936.3635;;;;
2019/12/14 04:36:20;;;;;;;6;1.4;;;;;;;3;92.00098;936.2944;;;;
2019/12/14 04:38:45;;;;;;;3.2;1.1;;;;;;;2.96;92.11328;936.3589;;;;
2019/12/14 04:41:10;;;;;;;4.3;1.4;;;;;;;2.98;92.45898;936.2024;;;;
2019/12/14 04:43:35;;;;;;;5;1.3;;;;;;;2.85;93.87598;936.1353;;;;
2019/12/14 04:46:00;;;;;;;3.7;1.2;;;;;;;2.78;95.13965;936.0745;;;;
2019/12/14 04:48:26;;;;;;;4.9;1.5;;;;;;;2.83;96.71875;936.082;;;;
2019/12/14 04:50:51;;;;;;;3.9;1.3;;;;;;;2.73;95.20703;936.0875;;;;
2019/12/14 04:53:16;;;;;;;4.5;1.4;;;;;;;2.77;96.42578;935.9391;;;;
2019/12/14 04:55:41;;;;;;;4.5;1.2;;;;;;;2.89;95.79688;935.9161;;;;
2019/12/14 04:58:06;;;;;;;4.9;1.4;;;;;;;2.95;96.13867;935.9914;;;;
2019/12/14 05:00:32;;;;;;;3.6;1.2;;;;;;;2.92;97.05762;935.7346;;;;
2019/12/14 05:02:57;;;;;;;4.5;1.3;;;;;;;2.98;96.29199;935.7505;;;;
2019/12/14 05:05:23;;;;;;;3.9;1.3;;;;;;;3.13;95.71387;935.5932;;;;
2019/12/14 05:07:48;;;;;;;5.4;1.5;;;;;;;2.91;97.43848;935.7009;;;;
2019/12/14 05:10:13;;;;;;;3.4;1.4;;;;;;;2.84;97.33496;935.6497;;;;
2019/12/14 05:12:39;;;;;;;3.9;1.5;;;;;;;2.84;97.83105;935.5762;;;;
2019/12/14 05:15:04;;;;;;;4.9;1.5;;;;;;;2.82;96.88867;935.54;;;;
2019/12/14 05:17:29;;;;;;;4.2;1.3;;;;;;;2.82;97.58887;935.4291;;;;
2019/12/14 05:19:54;;;;;;;4.1;1.3;;;;;;;2.8;98.73828;935.3412;;;;
2019/12/14 05:22:19;;;;;;;3.7;1.4;;;;;;;2.89;97.92188;935.473;;;;
2019/12/14 05:24:45;;;;;;;3.7;1.5;;;;;;;2.93;96.29102;935.4595;;;;
2019/12/14 05:27:10;;;;;;;3.3;1.3;;;;;;;3.03;97.45801;935.4389;;;;
2019/12/14 05:29:35;;;;;;;3.1;1.3;;;;;;;2.91;96.68457;935.3542;;;;
2019/12/14 05:32:00;;;;;;;4.6;1.3;;;;;;;2.91;97.56445;935.3872;;;;
2019/12/14 05:34:25;;;;;;;3.3;1.1;;;;;;;2.97;96.79883;935.267;;;;
2019/12/14 05:36:50;;;;;;;3.3;1.2;;;;;;;2.95;96.63672;935.1494;;;;
2019/12/14 05:39:15;;;;;;;2.5;1.1;;;;;;;2.94;95.24414;935.1615;;;;
2019/12/14 05:41:40;;;;;;;3;1.3;;;;;;;2.96;95.1123;935.1239;;;;
2019/12/14 05:44:05;;;;;;;3.2;1.2;;;;;;;3.06;96.38965;935.0257;;;;
2019/12/14 05:46:30;;;;;;;3;1.3;;;;;;;3.06;96.37793;934.9927;;;;
2019/12/14 05:48:56;;;;;;;4.5;1.4;;;;;;;3.12;96.55957;935.002;;;;
2019/12/14 05:51:21;;;;;;;3.3;1.2;;;;;;;3.04;96.21582;934.9739;;;;
2019/12/14 05:53:46;;;;;;;4.1;1.3;;;;;;;3.13;95.52148;934.9979;;;;
2019/12/14 05:56:11;;;;;;;4.1;1.3;;;;;;;3.17;95.06934;934.9493;;;;
2019/12/14 05:58:36;;;;;;;4.3;1.3;;;;;;;3.09;97.1084;934.8956;;;;
2019/12/14 06:01:01;;;;;;;4.1;1.5;;;;;;;3.21;97.52148;934.9961;;;;
2019/12/14 06:03:26;;;;;;;2.7;1.3;;;;;;;3.13;96.7334;934.9858;;;;
2019/12/14 06:05:52;;;;;;;4.6;1.6;;;;;;;3.14;100;934.9708;;;;
2019/12/14 06:08:17;;;;;;;6;1.6;;;;;;;3.12;99.8877;934.8917;;;;
2019/12/14 06:10:42;;;;;;;4.4;1.4;;;;;;;3.15;100;934.9571;;;;
2019/12/14 06:13:07;;;;;;;4.2;1.4;;;;;;;3.19;100;934.9645;;;;
2019/12/14 06:15:32;;;;;;;4.1;1.4;;;;;;;3.27;100;934.8727;;;;
2019/12/14 06:17:58;;;;;;;3.8;1.5;;;;;;;3.07;100;934.9669;;;;
2019/12/14 06:20:23;;;;;;;4.2;1.4;;;;;;;3.22;99.95605;935.0001;;;;
2019/12/14 06:22:48;;;;;;;5.3;1.5;;;;;;;3.22;100;934.9913;;;;
2019/12/14 06:25:18;;;;;;;4.1;1.4;;;;;;;3.3;100;934.9524;;;;
2019/12/14 06:27:43;;;;;;;4.7;1.8;;;;;;;3.45;100;935.1489;;;;
2019/12/14 06:30:08;;;;;;;3.4;1.6;;;;;;;3.58;100;935.1986;;;;
2019/12/14 06:32:33;;;;;;;4.2;1.7;;;;;;;3.71;100;935.2551;;;;
2019/12/14 06:34:58;;;;;;;3.2;1.6;;;;;;;3.82;100;935.2698;;;;
2019/12/14 06:37:23;;;;;;;3.2;1.3;;;;;;;4;99.35449;935.3464;;;;
2019/12/14 06:39:48;;;;;;;3.3;1.4;;;;;;;4.08;99.11523;935.1752;;;;
2019/12/14 06:42:13;;;;;;;2.7;1.1;;;;;;;4.24;98.87793;935.1459;;;;
2019/12/14 06:44:38;;;;;;;2.1;1;;;;;;;4.35;98.5332;935.1866;;;;
2019/12/14 06:47:08;;;;;;;2.3;1;;;;;;;4.49;97.71094;935.37;;;;
2019/12/14 06:49:30;;;;;;;3.3;0.9;;;;;;;4.62;96.78809;935.4194;;;;
2019/12/14 06:51:54;;;;;;;2.2;1.1;;;;;;;4.63;97.52832;935.4241;;;;
2019/12/14 06:54:19;;;;;;;3.3;1.1;;;;;;;4.67;97.96973;935.6058;;;;
2019/12/14 06:56:44;;;;;;;2.9;1;;;;;;;4.73;97.92578;935.6848;;;;
2019/12/14 06:59:09;;;;;;;1.9;0.9;;;;;;;4.73;98.43652;935.6149;;;;
2019/12/14 07:01:34;;;;;;;2.9;1;;;;;;;4.73;99.09473;935.7294;;;;
2019/12/14 07:03:59;;;;;;;1.6;1;;;;;;;4.73;99.93457;935.7332;;;;
2019/12/14 07:06:24;;;;;;;1.9;1;;;;;;;4.8;100;935.7447;;;;
2019/12/14 07:08:50;;;;;;;3.2;1.1;;;;;;;4.73;100;935.9648;;;;
2019/12/14 07:11:15;;;;;;;2.5;1.1;;;;;;;4.76;100;936.1046;;;;
2019/12/14 07:13:40;;;;;;;1.8;1;;;;;;;4.78;100;936.1116;;;;
2019/12/14 07:16:05;;;;;;;2.9;1.2;;;;;;;4.8;100;936.1368;;;;
2019/12/14 07:18:30;;;;;;;3;1.1;;;;;;;4.79;100;936.2853;;;;
2019/12/14 07:20:55;;;;;;;2.8;1.1;;;;;;;4.73;100;936.2544;;;;
2019/12/14 07:23:20;;;;;;;2;1;;;;;;;4.77;100;936.4222;;;;
2019/12/14 07:25:45;;;;;;;2.3;1.2;;;;;;;4.82;100;936.4314;;;;
2019/12/14 07:28:10;;;;;;;1.9;1.2;;;;;;;4.9;100;936.5144;;;;
2019/12/14 07:30:35;;;;;;;1.5;1.1;;;;;;;4.92;100;936.4734;;;;
2019/12/14 07:33:00;;;;;;;2.2;1.1;;;;;;;4.94;100;936.4285;;;;
2019/12/14 07:35:26;;;;;;;1.9;1.1;;;;;;;5;100;936.573;;;;
2019/12/14 07:37:51;;;;;;;2.6;1.2;;;;;;;5;100;936.6772;;;;
2019/12/14 07:40:16;;;;;;;2.3;1.3;;;;;;;5.03;100;936.7095;;;;
2019/12/14 07:42:41;;;;;;;2.3;1.1;;;;;;;5.15;99.9541;936.7081;;;;
2019/12/14 07:45:06;;;;;;;1.9;1.1;;;;;;;5.16;100;936.7921;;;;
2019/12/14 07:47:31;;;;;;;2.2;1.2;;;;;;;5.19;100;936.8308;;;;
2019/12/14 07:49:56;;;;;;;1.7;1;;;;;;;5.26;100;936.9156;;;;
2019/12/14 07:52:21;;;;;;;1.6;0.9;;;;;;;5.37;99.68848;936.8706;;;;
2019/12/14 07:54:46;;;;;;;1.7;1.1;;;;;;;5.41;99.54688;936.8448;;;;
2019/12/14 07:57:11;;;;;;;1.8;1;;;;;;;5.53;98.4834;936.9217;;;;
2019/12/14 07:59:36;;;;;;;2.4;1;;;;;;;5.62;98.08398;936.9469;;;;
2019/12/14 08:02:02;;;;;;;1.3;0.9;;;;;;;5.61;98.49316;937.0664;;;;
2019/12/14 08:04:27;;;;;;;2;1.1;;;;;;;5.72;98.16309;937.0441;;;;
2019/12/14 08:06:52;;;;;;;1.5;0.9;;;;;;;5.71;98.31055;937.1658;;;;
2019/12/14 08:09:17;;;;;;;1.5;0.9;;;;;;;5.75;98.47656;937.3131;;;;
2019/12/14 08:11:42;;;;;;;1.5;0.7;;;;;;;5.82;97.36816;937.1902;;;;
2019/12/14 08:14:07;;;;;;;2.2;1.1;;;;;;;5.91;97.58008;937.3042;;;;
2019/12/14 08:16:32;;;;;;;1.7;0.8;;;;;;;6.02;96.61816;937.2576;;;;
2019/12/14 08:18:57;;;;;;;1.8;1;;;;;;;6.1;96.08887;937.4316;;;;
2019/12/14 08:21:22;;;;;;;3.3;1;;;;;;;6.24;94.5;937.3925;;;;
2019/12/14 08:23:48;;;;;;;2.3;1;;;;;;;6.25;94.59473;937.4767;;;;
2019/12/14 08:26:13;;;;;;;2.9;1;;;;;;;6.34;92.74512;937.5695;;;;
2019/12/14 08:28:39;;;;;;;3.3;1;;;;;;;6.4;91.87988;937.6356;;;;
2019/12/14 08:31:04;;;;;;;3.5;1.2;;;;;;;6.47;91.44043;937.7029;;;;
2019/12/14 08:33:29;;;;;;;3.3;1.2;;;;;;;6.5;91.19531;937.7117;;;;
2019/12/14 08:35:54;;;;;;;3.9;1.1;;;;;;;6.47;91.4043;937.8696;;;;
2019/12/14 08:38:20;;;;;;;3.6;1;;;;;;;6.53;90.21875;937.8929;;;;
2019/12/14 08:40:45;;;;;;;4.4;1.3;;;;;;;6.63;89.70508;937.9105;;;;
2019/12/14 08:43:10;;;;;;;3.4;1.1;;;;;;;6.74;88.3252;938.1662;;;;
2019/12/14 08:45:35;;;;;;;3.1;1.2;;;;;;;6.92;85.53223;938.1708;;;;
2019/12/14 08:48:00;;;;;;;7;1.6;;;;;;;6.93;85.27148;938.3365;;;;
2019/12/14 08:50:26;;;;;;;4.9;1.4;;;;;;;7.1;83.52344;938.3792;;;;
2019/12/14 08:52:54;;;;;;;5.6;1.6;;;;;;;7.27;83.14746;938.4469;;;;
2019/12/14 08:55:59;;;;;;;4.4;1.4;;;;;;;7.26;82.81445;938.3463;;;;
2019/12/14 08:57:42;;;;;;;4.2;1.5;;;;;;;7.39;81.75391;938.4902;;;;
2019/12/14 09:00:07;;;;;;;4.8;1.5;;;;;;;7.41;80.62598;938.6091;;;;
2019/12/14 09:02:32;;;;;;;6.4;1.8;;;;;;;7.54;80.55957;938.6273;;;;
2019/12/14 09:04:57;;;;;;;6.3;1.9;;;;;;;7.43;80.95117;938.9242;;;;
2019/12/14 09:07:22;;;;;;;5.9;1.7;;;;;;;7.45;79.50293;938.8583;;;;
2019/12/14 09:09:48;;;;;;;5.5;1.6;;;;;;;7.54;80.29688;938.7714;;;;
2019/12/14 09:12:13;;;;;;;5.9;1.7;;;;;;;7.44;79.43164;938.993;;;;
2019/12/14 09:14:38;;;;;;;6.4;1.8;;;;;;;7.55;78.97461;939.2439;;;;
2019/12/14 09:17:03;;;;;;;6.5;1.8;;;;;;;7.59;78.18066;939.1959;;;;
2019/12/14 09:19:28;;;;;;;5.4;1.6;;;;;;;7.5;78.47168;939.1995;;;;
2019/12/14 09:21:54;;;;;;;5.2;1.8;;;;;;;7.54;78.31934;939.2651;;;;
2019/12/14 09:24:19;;;;;;;6.8;2;;;;;;;7.64;77.2627;939.3733;;;;
2019/12/14 09:26:44;;;;;;;6.8;2;;;;;;;7.6;77.55371;939.5364;;;;
2019/12/14 09:29:09;;;;;;;5.3;1.9;;;;;;;7.67;76.71875;939.6586;;;;
2019/12/14 09:31:35;;;;;;;5.3;1.7;;;;;;;7.8;75.89746;939.8413;;;;
2019/12/14 09:34:00;;;;;;;6.1;1.8;;;;;;;7.85;75.80371;939.7902;;;;
2019/12/14 09:36:25;;;;;;;5.6;1.7;;;;;;;8;75.08691;939.9778;;;;
2019/12/14 09:38:51;;;;;;;7.3;2;;;;;;;8.01;74.43457;939.8764;;;;
2019/12/14 09:41:16;;;;;;;6.1;1.6;;;;;;;8.01;74.28711;939.8406;;;;
2019/12/14 09:43:41;;;;;;;7.3;1.8;;;;;;;8.02;75.33008;939.9431;;;;
2019/12/14 09:46:06;;;;;;;5.5;1.7;;;;;;;8.19;73.74414;939.9973;;;;
2019/12/14 09:48:32;;;;;;;6;1.4;;;;;;;8.07;75.24512;940.2282;;;;
2019/12/14 09:50:57;;;;;;;5.7;1.7;;;;;;;8.13;74.03418;940.0778;;;;
2019/12/14 09:53:22;;;;;;;5.1;1.7;;;;;;;8.15;72.88965;940.3003;;;;
2019/12/14 09:55:47;;;;;;;5.5;1.8;;;;;;;8.23;72.12695;940.4306;;;;
2019/12/14 09:58:12;;;;;;;5.2;1.6;;;;;;;8.28;71.72168;940.3954;;;;
2019/12/14 10:00:38;;;;;;;5.4;1.5;;;;;;;8.24;71.56738;940.5385;;;;
2019/12/14 10:03:03;;;;;;;5.3;1.7;;;;;;;8.28;70.9668;940.4595;;;;
2019/12/14 10:05:28;;;;;;;5.5;1.5;;;;;;;8.19;71.47852;940.7048;;;;
2019/12/14 10:07:53;;;;;;;5.4;1.7;;;;;;;8.13;72.21289;940.7584;;;;
2019/12/14 10:10:18;;;;;;;6.4;1.5;;;;;;;8.13;70.31348;940.9337;;;;
2019/12/14 10:12:43;;;;;;;4.7;1.6;;;;;;;8.11;69.97852;940.7952;;;;
2019/12/14 10:15:08;;;;;;;6;2;;;;;;;8.17;70.21777;941.1058;;;;
2019/12/14 10:17:33;;;;;;;6.2;1.7;;;;;;;8.11;71.31738;941.2147;;;;
2019/12/14 10:19:58;;;;;;;4.7;1.6;;;;;;;8.13;71.62988;941.3198;;;;
2019/12/14 10:22:23;;;;;;;6;1.6;;;;;;;8.13;70.87598;941.6256;;;;
2019/12/14 10:24:49;;;;;;;5.3;1.5;;;;;;;8.13;70.46387;941.6548;;;;
2019/12/14 10:27:14;;;;;;;4.6;1.5;;;;;;;8.1;69.80371;941.6987;;;;
2019/12/14 10:29:39;;;;;;;4.8;1.4;;;;;;;8.14;70.48633;941.9024;;;;
2019/12/14 10:32:04;;;;;;;4.4;1.4;;;;;;;8.1;69.88379;941.6777;;;;
2019/12/14 10:34:29;;;;;;;4.9;1.6;;;;;;;8.13;70.10742;941.9006;;;;
2019/12/14 10:36:55;;;;;;;5.5;1.7;;;;;;;8.14;69.22754;941.9089;;;;
2019/12/14 10:39:20;;;;;;;4.9;1.5;;;;;;;8.11;68.3418;941.7256;;;;
2019/12/14 10:41:45;;;;;;;4.7;1.6;;;;;;;8.29;66.5957;941.9615;;;;
2019/12/14 10:44:10;;;;;;;6.2;1.3;;;;;;;8.39;67.24121;942.0428;;;;
2019/12/14 10:46:35;;;;;;;5.2;1.5;;;;;;;8.53;66.96484;942.1531;;;;
2019/12/14 10:49:00;;;;;;;4.4;1.4;;;;;;;8.67;66.43652;942.1908;;;;
2019/12/14 10:51:26;;;;;;;4.5;1.3;;;;;;;8.62;66.39551;942.2332;;;;
2019/12/14 10:53:51;;;;;;;4.6;1.7;;;;;;;8.55;65.59375;942.3273;;;;
2019/12/14 10:56:18;;;;;;;5.3;1.5;;;;;;;8.56;66.64941;942.3299;;;;
2019/12/14 10:58:49;;;;;;;6.3;1.6;;;;;;;8.56;66.6377;942.2188;;;;
2019/12/14 11:03:38;;;;;;;4.3;1.3;;;;;;;8.48;64.89453;942.218;;;;
2019/12/14 11:05:56;;;;;;;4.5;1.5;;;;;;;8.5;64.40625;942.184;;;;
2019/12/14 11:08:21;;;;;;;4.1;1.3;;;;;;;8.44;65.78223;942.2189;;;;
2019/12/14 11:10:47;;;;;;;6.5;1.5;;;;;;;8.44;66.05859;942.3707;;;;
2019/12/14 11:13:12;;;;;;;5.5;1.8;;;;;;;8.33;66.12109;942.2966;;;;
2019/12/14 11:15:37;;;;;;;6;1.6;;;;;;;8.36;65.34766;942.4685;;;;
2019/12/14 11:18:02;;;;;;;3.5;1.5;;;;;;;8.44;64.61523;942.3269;;;;
2019/12/14 11:20:28;;;;;;;3.2;1.4;;;;;;;8.4;64.08203;942.4152;;;;
2019/12/14 11:22:53;;;;;;;6.8;2.3;;;;;;;8.41;64.93066;942.5136;;;;
2019/12/14 11:25:18;;;;;;;3.5;1.2;;;;;;;8.4;64.20801;942.3405;;;;
2019/12/14 11:27:44;;;;;;;4.1;1.3;;;;;;;8.32;66.1084;942.4517;;;;
2019/12/14 11:30:09;;;;;;;5.3;1.5;;;;;;;8.32;66.74902;942.5044;;;;
2019/12/14 11:32:34;;;;;;;4.2;1.4;;;;;;;8.34;65.90625;942.5714;;;;
2019/12/14 11:34:59;;;;;;;3.1;1.2;;;;;;;8.27;66.51172;942.6836;;;;
2019/12/14 11:37:24;;;;;;;3.4;1.6;;;;;;;8.28;66.2959;942.7249;;;;
2019/12/14 11:39:49;;;;;;;3.9;1.3;;;;;;;8.36;65.25488;942.7615;;;;
2019/12/14 11:42:15;;;;;;;2.8;1.2;;;;;;;8.3;66.56348;942.7842;;;;
2019/12/14 11:44:40;;;;;;;3.3;1.3;;;;;;;8.4;66.22363;942.7601;;;;
2019/12/14 11:47:05;;;;;;;3.7;1.3;;;;;;;8.35;66.54688;942.8794;;;;
2019/12/14 11:49:30;;;;;;;4.2;1.3;;;;;;;8.22;67.03027;942.7898;;;;
2019/12/14 11:51:56;;;;;;;5.5;1.6;;;;;;;8.22;66.80078;942.9829;;;;
2019/12/14 11:54:21;;;;;;;4.4;1.4;;;;;;;8.13;67.63574;942.9366;;;;
2019/12/14 11:56:46;;;;;;;3.9;1.2;;;;;;;8.22;67.33887;942.8588;;;;
2019/12/14 11:59:12;;;;;;;5;1.6;;;;;;;8.15;69.3418;942.9172;;;;
2019/12/14 12:01:38;;;;;;;3.8;1.6;;;;;;;8.13;73.19727;943.0258;;;;
2019/12/14 12:04:03;;;;;;;4.3;1.5;;;;;;;7.99;73.5752;943.0233;;;;
2019/12/14 12:06:28;;;;;;;2.6;1.2;;;;;;;7.75;78.51758;942.9871;;;;
2019/12/14 12:08:54;;;;;;;2.8;1.1;;;;;;;7.5;80.44824;943.0769;;;;
2019/12/14 12:11:19;;;;;;;3.8;1;;;;;;;7.43;82.02441;943.1238;;;;
2019/12/14 12:13:44;;;;;;;4.1;1.1;;;;;;;7.33;81.84473;943.3284;;;;
2019/12/14 12:16:10;;;;;;;2.4;1.1;;;;;;;7.27;82.2207;943.1658;;;;
2019/12/14 12:18:35;;;;;;;2;0.8;;;;;;;7.2;81.69531;943.2263;;;;
2019/12/14 12:21:00;;;;;;;2.4;0.8;;;;;;;7.17;81.67871;943.2449;;;;
2019/12/14 12:23:25;;;;;;;3.1;0.9;;;;;;;7.34;81.44629;943.283;;;;
2019/12/14 12:25:50;;;;;;;2.2;0.8;;;;;;;7.41;80.68262;943.3488;;;;
2019/12/14 12:28:15;;;;;;;2.6;1;;;;;;;7.48;80.14844;943.2084;;;;
2019/12/14 12:30:40;;;;;;;2.9;0.9;;;;;;;7.56;79.80859;943.296;;;;
2019/12/14 12:33:09;;;;;;;3.1;1.1;;;;;;;7.62;79.20313;943.0959;;;;
2019/12/14 12:35:34;;;;;;;2.6;1.1;;;;;;;7.65;78.91113;943.3295;;;;
2019/12/14 12:37:59;;;;;;;3;1.1;;;;;;;7.87;78.47363;943.5104;;;;
2019/12/14 12:40:24;;;;;;;3.6;1.1;;;;;;;7.94;77.38477;943.4805;;;;
2019/12/14 12:42:49;;;;;;;3.4;1.2;;;;;;;7.89;77.65332;943.7405;;;;
2019/12/14 12:45:14;;;;;;;4.1;1.3;;;;;;;7.89;77.13672;943.6003;;;;
2019/12/14 12:47:39;;;;;;;4.8;1.4;;;;;;;7.93;77.2002;943.7531;;;;
2019/12/14 12:50:04;;;;;;;4;1.2;;;;;;;8.02;75.45605;943.8174;;;;
2019/12/14 12:52:29;;;;;;;3.8;1.3;;;;;;;8;75.24512;943.9373;;;;
2019/12/14 12:54:54;;;;;;;4.8;1.4;;;;;;;7.98;75.20801;944.0515;;;;
2019/12/14 12:57:19;;;;;;;3.2;1.2;;;;;;;7.99;75.02832;943.8278;;;;
2019/12/14 12:59:44;;;;;;;5.1;1.5;;;;;;;8.28;79.23242;944.1067;;;;
2019/12/14 13:02:10;;;;;;;3;1.1;;;;;;;8.01;73.12988;944.1116;;;;
2019/12/14 13:04:35;;;;;;;4.4;1.2;;;;;;;7.96;73.28125;944.3834;;;;
2019/12/14 13:07:00;;;;;;;4.7;1.1;;;;;;;7.9;72.47168;944.3028;;;;
2019/12/14 13:09:25;;;;;;;3.7;1.1;;;;;;;7.75;73.19043;944.5291;;;;
2019/12/14 13:11:50;;;;;;;2.5;0.8;;;;;;;7.75;72.65332;944.5681;;;;
2019/12/14 13:14:15;;;;;;;3.2;0.9;;;;;;;7.65;73.58398;944.6459;;;;
2019/12/14 13:16:40;;;;;;;2.1;0.7;;;;;;;7.54;74.11426;944.8608;;;;
2019/12/14 13:19:05;;;;;;;1.8;0.7;;;;;;;7.54;74.76563;944.9163;;;;
2019/12/14 13:21:30;;;;;;;2.1;1;;;;;;;7.43;75.5918;945.0742;;;;
2019/12/14 13:23:56;;;;;;;2.6;0.8;;;;;;;7.35;76.45801;945.2177;;;;
2019/12/14 13:26:21;;;;;;;2.6;0.9;;;;;;;7.3;76.11816;945.459;;;;
2019/12/14 13:28:47;;;;;;;2.5;0.9;;;;;;;7.32;76.9209;945.5449;;;;
2019/12/14 13:31:12;;;;;;;2.8;1;;;;;;;7.28;76.52441;945.7106;;;;
2019/12/14 13:33:38;;;;;;;2.7;0.9;;;;;;;7.26;77.1709;945.6586;;;;
2019/12/14 13:36:03;;;;;;;2.7;1;;;;;;;7.26;76.47559;945.7079;;;;
2019/12/14 13:40:54;;;;;;;2.7;0.9;;;;;;;7.3;77.12207;945.8973;;;;
2019/12/14 13:43:19;;;;;;;4.4;1.1;;;;;;;7.31;76.58789;945.9847;;;;
2019/12/14 13:45:44;;;;;;;3.8;1.3;;;;;;;7.26;75.69922;946.3398;;;;
2019/12/14 13:48:09;;;;;;;2.8;1;;;;;;;7.23;75.6582;946.1994;;;;
2019/12/14 13:50:34;;;;;;;3.4;1.2;;;;;;;7.12;75.10352;946.2606;;;;
2019/12/14 13:52:59;;;;;;;4.1;1.3;;;;;;;7.2;74.60352;946.3717;;;;
2019/12/14 13:55:24;;;;;;;3.6;1.1;;;;;;;7.09;74.98438;946.3716;;;;
2019/12/14 13:57:49;;;;;;;4.2;1.3;;;;;;;7.05;74.22168;946.3814;;;;
2019/12/14 14:00:14;;;;;;;5.6;1.6;;;;;;;6.93;74.32715;946.4942;;;;
2019/12/14 14:02:39;;;;;;;5.4;1.6;;;;;;;6.93;73.75781;946.5939;;;;
2019/12/14 14:05:05;;;;;;;6.6;1.6;;;;;;;6.9;73.29492;946.5659;;;;
2019/12/14 14:07:30;;;;;;;4.6;1.8;;;;;;;6.9;73.58203;946.5012;;;;
2019/12/14 14:09:55;;;;;;;6.5;1.6;;;;;;;6.89;73.19043;946.6477;;;;
2019/12/14 14:12:20;;;;;;;5.4;1.7;;;;;;;6.92;72.52246;946.6465;;;;
2019/12/14 14:14:45;;;;;;;4.3;1.6;;;;;;;6.88;73.57715;946.6175;;;;
2019/12/14 14:17:10;;;;;;;8.1;1.9;;;;;;;6.91;72.51074;946.7506;;;;
2019/12/14 14:19:41;;;;;;;7;1.8;;;;;;;6.85;72.13477;946.7175;;;;
2019/12/14 14:22:06;;;;;;;6.1;1.8;;;;;;;6.92;70.75488;946.7582;;;;
2019/12/14 14:24:31;;;;;;;8.2;2.1;;;;;;;6.87;71.33887;947.0684;;;;
2019/12/14 14:26:56;;;;;;;8.5;2.2;;;;;;;6.88;70.04004;947.0101;;;;
2019/12/14 14:29:21;;;;;;;9.7;2.8;;;;;;;6.92;69.01855;947.1113;;;;
2019/12/14 14:31:46;;;;;;;9.6;2.6;;;;;;;6.97;68.08008;947.1696;;;;
2019/12/14 14:34:11;;;;;;;8.9;2.5;;;;;;;6.98;68.12891;947.1955;;;;
2019/12/14 14:36:37;;;;;;;7.6;2.3;;;;;;;7.07;66.15527;947.3367;;;;
2019/12/14 14:39:03;;;;;;;7.4;2.8;;;;;;;6.98;66.11816;947.457;;;;
2019/12/14 14:41:27;;;;;;;6.6;2.3;;;;;;;7.01;66.3291;947.4088;;;;
2019/12/14 14:44:30;;;;;;;7.8;2.4;;;;;;;7.07;65.51563;947.3293;;;;
2019/12/14 14:46:48;;;;;;;8.3;2.2;;;;;;;6.98;66.45117;947.4294;;;;
2019/12/14 14:49:13;;;;;;;7;2.6;;;;;;;7.08;65.47266;947.4006;;;;
2019/12/14 14:51:38;;;;;;;8.1;2.5;;;;;;;7.01;64.77734;947.3538;;;;
2019/12/14 14:54:03;;;;;;;7.2;2.2;;;;;;;7.08;63.44043;947.4776;;;;
2019/12/14 14:56:28;;;;;;;6.4;2.1;;;;;;;7.11;63.33008;947.5662;;;;
2019/12/14 14:58:53;;;;;;;7.4;2.5;;;;;;;7.16;62.61816;947.6099;;;;
2019/12/14 15:01:18;;;;;;;5.7;2;;;;;;;7.15;62.85742;947.6609;;;;
2019/12/14 15:03:43;;;;;;;7;2.6;;;;;;;7.16;63.44141;947.6869;;;;
2019/12/14 15:06:08;;;;;;;6.6;2.4;;;;;;;7.26;63.20313;947.6596;;;;
2019/12/14 15:08:33;;;;;;;8.1;3;;;;;;;7.24;63.29199;947.5709;;;;
2019/12/14 15:10:59;;;;;;;8.1;3.4;;;;;;;7.18;63.4082;947.3831;;;;
2019/12/14 15:13:24;;;;;;;6.6;2.3;;;;;;;7.23;61.49707;947.4016;;;;
2019/12/14 15:15:49;;;;;;;8.5;2.6;;;;;;;7.19;61.07031;947.3097;;;;
2019/12/14 15:18:14;;;;;;;8.1;2.5;;;;;;;7.19;61.60645;947.4361;;;;
2019/12/14 15:20:39;;;;;;;7.2;2.5;;;;;;;7.15;60.8125;947.3714;;;;
2019/12/14 15:23:04;;;;;;;7.8;2.5;;;;;;;7.16;60.41406;947.4755;;;;
2019/12/14 15:25:29;;;;;;;7.2;2.5;;;;;;;7.19;60.68164;947.4969;;;;
2019/12/14 15:27:54;;;;;;;7.3;2.5;;;;;;;7.14;61.42871;947.5602;;;;
2019/12/14 15:30:19;;;;;;;7.6;2.8;;;;;;;7.13;61.9043;947.5933;;;;
2019/12/14 15:32:44;;;;;;;8.8;3;;;;;;;7.1;62.26758;947.6108;;;;
2019/12/14 15:35:09;;;;;;;7.1;2.5;;;;;;;7.03;61.29688;947.6298;;;;
2019/12/14 15:37:35;;;;;;;8.1;2.9;;;;;;;7.01;61.0791;947.7537;;;;
2019/12/14 15:40:00;;;;;;;8.9;3;;;;;;;6.96;60.93359;947.8041;;;;
2019/12/14 15:42:25;;;;;;;7.5;2.7;;;;;;;6.94;60.94336;947.7955;;;;
2019/12/14 15:44:50;;;;;;;7.9;2.9;;;;;;;7;60.11719;947.9412;;;;
2019/12/14 15:47:15;;;;;;;10.7;3.3;;;;;;;6.98;60.37695;947.8652;;;;
2019/12/14 15:49:40;;;;;;;8.3;3.1;;;;;;;6.9;59.79492;947.923;;;;
2019/12/14 15:52:05;;;;;;;8.3;2.8;;;;;;;6.83;59.35352;947.8502;;;;